createdAt,value
2018-12-06T00:00:35.078Z,16.07
2018-12-06T00:10:50.805Z,12.90
2018-12-06T00:21:06.178Z,14.00
2018-12-06T00:31:21.452Z,15.07
2018-12-06T00:52:10.326Z,14.10
2018-12-06T01:02:25.065Z,12.57
2018-12-06T01:12:40.306Z,15.17
2018-12-06T01:22:55.870Z,13.00
2018-12-06T01:33:11.503Z,12.97
2018-12-06T01:43:32.348Z,14.10
2018-12-06T01:53:47.322Z,14.60
2018-12-06T02:04:02.091Z,17.90
2018-12-06T02:14:17.446Z,17.80
2018-12-06T02:24:32.923Z,18.33
2018-12-06T02:34:47.924Z,20.90
2018-12-06T02:45:03.693Z,22.37
2018-12-06T02:55:19.130Z,26.07
2018-12-06T03:05:33.987Z,22.93
2018-12-06T03:15:48.708Z,25.33
2018-12-06T03:26:03.854Z,30.07
2018-12-06T03:36:19.378Z,25.77
2018-12-06T03:46:35.064Z,23.63
2018-12-06T03:56:50.829Z,20.90
2018-12-06T04:07:06.689Z,19.13
2018-12-06T04:17:22.028Z,16.87
2018-12-06T04:27:37.865Z,14.83
2018-12-06T04:37:53.257Z,13.53
2018-12-06T04:48:09.080Z,14.40
2018-12-06T04:58:24.286Z,14.77
2018-12-06T05:08:40.137Z,18.37
2018-12-06T05:18:55.001Z,16.53
2018-12-06T05:29:09.915Z,18.77
2018-12-06T05:39:25.233Z,18.97
2018-12-06T05:49:40.004Z,18.87
2018-12-06T05:59:55.671Z,21.80
2018-12-06T06:10:10.813Z,20.77
2018-12-06T06:20:28.311Z,21.73
2018-12-06T06:30:44.066Z,22.83
2018-12-06T06:40:58.954Z,24.73
2018-12-06T06:51:13.728Z,23.90
2018-12-06T07:01:28.584Z,33.83
2018-12-06T07:11:44.386Z,37.80
2018-12-06T07:21:59.993Z,40.27
2018-12-06T07:32:15.625Z,49.30
2018-12-06T07:42:31.159Z,42.17
2018-12-06T07:52:46.816Z,45.17
2018-12-06T08:03:01.741Z,48.57
2018-12-06T08:13:17.659Z,52.73
2018-12-06T08:23:32.973Z,56.03
2018-12-06T08:33:47.764Z,44.23
2018-12-06T08:44:03.501Z,46.93
2018-12-06T08:54:18.221Z,48.90
2018-12-06T09:04:33.769Z,45.07
2018-12-06T09:14:49.434Z,40.10
2018-12-06T09:25:04.208Z,40.47
2018-12-06T09:35:19.735Z,40.33
2018-12-06T09:45:35.300Z,37.93
2018-12-06T09:55:50.004Z,30.53
2018-12-06T10:06:05.293Z,33.93
2018-12-06T10:16:20.326Z,26.23
2018-12-06T10:26:35.961Z,27.03
2018-12-06T10:36:51.535Z,25.97
2018-12-06T10:47:06.313Z,22.60
2018-12-06T10:57:22.111Z,24.73
2018-12-06T11:07:37.000Z,21.33
2018-12-06T11:17:51.944Z,19.80
2018-12-06T11:28:06.792Z,19.52
2018-12-06T11:38:21.714Z,13.87
2018-12-06T11:48:36.362Z,14.50
2018-12-06T11:58:51.208Z,18.47
2018-12-06T12:09:07.841Z,15.40
2018-12-06T12:19:23.350Z,16.83
2018-12-06T12:29:38.908Z,17.47
2018-12-06T12:39:54.427Z,19.27
2018-12-06T12:50:09.271Z,19.85
2018-12-06T13:00:24.495Z,19.10
2018-12-06T13:10:41.078Z,14.83
2018-12-06T13:20:56.760Z,19.90
2018-12-06T13:31:12.438Z,17.67
2018-12-06T13:41:27.679Z,22.80
2018-12-06T13:51:43.228Z,17.10
2018-12-06T14:01:58.573Z,19.30
2018-12-06T14:12:13.565Z,16.17
2018-12-06T14:22:29.426Z,13.30
2018-12-06T14:32:45.160Z,18.77
2018-12-06T14:43:00.069Z,15.17
2018-12-06T14:53:15.574Z,12.27
2018-12-06T15:03:31.302Z,12.13
2018-12-06T15:13:46.246Z,10.47
2018-12-06T15:24:01.715Z,10.33
2018-12-06T15:34:17.602Z,12.43
2018-12-06T15:44:34.607Z,10.90
2018-12-06T15:54:49.622Z,10.77
2018-12-06T16:05:05.349Z,11.17
2018-12-06T16:15:20.363Z,10.20
2018-12-06T16:25:36.195Z,14.07
2018-12-06T16:35:51.695Z,12.63
2018-12-06T16:46:07.341Z,15.03
2018-12-06T16:56:23.045Z,10.37
2018-12-06T17:06:38.055Z,11.17
2018-12-06T17:16:52.865Z,10.63
2018-12-06T17:27:08.253Z,9.80
2018-12-06T17:37:23.843Z,7.70
2018-12-06T17:47:39.838Z,6.90
2018-12-06T17:57:55.338Z,6.60
2018-12-06T18:08:11.102Z,7.20
2018-12-06T18:18:26.634Z,8.57
2018-12-06T18:28:42.181Z,9.33
2018-12-06T18:38:57.505Z,9.63
2018-12-06T18:49:13.447Z,10.37
2018-12-06T18:59:29.148Z,11.43
2018-12-06T19:09:44.935Z,12.47
2018-12-06T19:20:00.539Z,12.87
2018-12-06T19:30:16.707Z,11.33
2018-12-06T19:40:32.534Z,11.77
2018-12-06T19:50:48.637Z,12.00
2018-12-06T20:01:04.037Z,13.33
2018-12-06T20:11:19.972Z,13.87
2018-12-06T20:21:35.149Z,15.40
2018-12-06T20:31:50.758Z,14.03
2018-12-06T20:42:05.741Z,14.10
2018-12-06T20:52:20.638Z,14.63
2018-12-06T21:02:35.876Z,12.67
2018-12-06T21:12:51.472Z,13.70
2018-12-06T21:23:07.158Z,14.13
2018-12-06T21:33:22.214Z,12.23
2018-12-06T21:43:37.877Z,11.17
2018-12-06T21:53:53.393Z,9.67
2018-12-06T22:04:08.823Z,8.63
2018-12-06T22:14:23.781Z,5.90
2018-12-06T22:24:46.943Z,6.03
2018-12-06T22:35:02.577Z,9.03
2018-12-06T22:45:52.896Z,10.27
2018-12-06T22:56:08.690Z,8.45
2018-12-06T23:06:25.309Z,8.27
2018-12-06T23:16:40.208Z,8.40
2018-12-06T23:26:55.127Z,6.90
2018-12-06T23:37:10.739Z,8.27
2018-12-06T23:47:26.198Z,9.13
2018-12-06T23:57:42.077Z,7.27
